Have a Safe July 4th! 

Flight Track Log - Related Links

Times and Time Zones

All times are in EDT time to prevent confusion due to time zone crossing. See the TAM3201 flight status page for this flight to view local times or setup timezone preferences in your user account.

Time Position Orientation Groundspeed Altitude Reporting Facility
EDT Latitude Longitude Course Direction KTS MPH feet Rate Location/Type
Wed 07:16:16 AM -19.6310 -43.9720 137° Southeast 120 138  Level FlightAware ADS-B
Wed 07:16:40 AM -19.6440 -43.9590 137° Southeast 163 188 2,800 4,435 Climbing FlightAware ADS-B
Wed 07:17:02 AM -19.6560 -43.9500 145° Southeast 172 198 3,400 1,543 Climbing FlightAware ADS-B
Wed 07:17:15 AM -19.6690 -43.9470 168° South 191 220 3,700 1,200 Climbing FlightAware ADS-B
Wed 07:17:37 AM -19.6870 -43.9420 165° South 216 249 4,100 1,412 Climbing FlightAware ADS-B
Wed 07:17:49 AM -19.7000 -43.9390 168° South 231 266 4,500 3,000 Climbing FlightAware ADS-B
Wed 07:18:13 AM -19.7190 -43.9220 140° Southeast 234 269 5,900 3,600 Climbing FlightAware ADS-B
Wed 07:18:19 AM -19.7210 -43.9130 103° East 234 269 6,300 3,091 Climbing FlightAware ADS-B
Wed 07:18:46 AM -19.7100 -43.8850 67° East 238 274 7,600 2,813 Climbing FlightAware ADS-B
Wed 07:18:51 AM -19.7050 -43.8820 29° Northeast 238 274 7,800 2,000 Climbing FlightAware ADS-B
Wed 07:19:01 AM -19.6960 -43.8800 12° North 242 278 8,100 1,400 Climbing FlightAware ADS-B
Wed 07:19:21 AM -19.6790 -43.8830 351° North 239 275 8,500 2,100 Climbing FlightAware ADS-B
Wed 07:19:41 AM -19.6500 -43.8950 339° North 274 315 9,500 2,618 Climbing FlightAware ADS-B
Wed 07:20:16 AM -19.6070 -43.9150 336° Northwest 298 343 10,900 2,000 Climbing FlightAware ADS-B
Wed 07:20:32 AM -19.5940 -43.9340 306° West 314 361 11,200 2,421 Climbing FlightAware ADS-B
Wed 07:21:13 AM -19.5750 -43.9940 289° West 324 373 13,200 3,051 Climbing FlightAware ADS-B
Wed 07:21:31 AM -19.5680 -44.0230 284° West 331 381 14,200 2,909 Climbing FlightAware ADS-B
Wed 07:21:46 AM -19.5700 -44.0460 265° West 340 391 14,800 3,120 Climbing FlightAware ADS-B
Wed 07:22:21 AM -19.5990 -44.0990 240° Southwest 341 392 16,800 2,743 Climbing FlightAware ADS-B
Wed 07:22:56 AM -19.6290 -44.1430 234° Southwest 355 409 18,000 2,486 Climbing FlightAware ADS-B
Wed 07:23:31 AM -19.6670 -44.1960 233° Southwest 357 411 19,700 2,282 Climbing FlightAware ADS-B
Wed 07:24:07 AM -19.7000 -44.2400 231° Southwest 368 423 20,700 2,630 Climbing FlightAware ADS-B
Wed 07:24:44 AM -19.7430 -44.2960 231° Southwest 350 403 22,900 2,435 Climbing FlightAware ADS-B
Wed 07:25:16 AM -19.7770 -44.3400 231° Southwest 367 422 23,500 1,091 Climbing FlightAware ADS-B
Wed 07:25:50 AM -19.8120 -44.3880 232° Southwest 385 443 24,100 1,333 Climbing FlightAware ADS-B
Wed 07:26:28 AM -19.8550 -44.4440 231° Southwest 391 450 25,100 1,865 Climbing FlightAware ADS-B
Wed 07:27:04 AM -19.8940 -44.4960 231° Southwest 387 445 26,400 2,108 Climbing FlightAware ADS-B
Wed 07:27:42 AM -19.9380 -44.5540 231° Southwest 384 442 27,700 1,622 Climbing FlightAware ADS-B
Wed 07:28:18 AM -19.9750 -44.6040 232° Southwest 391 450 28,400 1,105 Climbing FlightAware ADS-B
Wed 07:28:58 AM -20.0230 -44.6690 232° Southwest 401 461 29,100 1,154 Climbing FlightAware ADS-B
Wed 07:29:36 AM -20.0700 -44.7300 231° Southwest 407 468 29,900 1,099 Climbing FlightAware ADS-B
Wed 07:30:09 AM -20.1040 -44.7770 232° Southwest 409 471 30,400 1,200 Climbing FlightAware ADS-B
Wed 07:30:46 AM -20.1520 -44.8400 231° Southwest 413 475 31,300 1,167 Climbing FlightAware ADS-B
Wed 07:31:21 AM -20.1930 -44.8950 232° Southwest 420 483 31,800 911 Climbing FlightAware ADS-B
Wed 07:32:05 AM -20.2430 -44.9620 231° Southwest 423 487 32,500 1,184 Climbing FlightAware ADS-B
Wed 07:32:37 AM -20.2860 -45.0190 231° Southwest 422 486 33,300 1,182 Climbing FlightAware ADS-B
Wed 07:33:11 AM -20.3280 -45.0760 232° Southwest 427 491 33,800 1,215 Climbing FlightAware ADS-B
Wed 07:33:56 AM -20.3840 -45.1510 231° Southwest 422 486 34,900 1,575 Climbing FlightAware ADS-B
Wed 07:34:31 AM -20.4250 -45.2060 231° Southwest 405 466 35,900 904 Climbing FlightAware ADS-B
Wed 07:35:09 AM -20.4670 -45.2610 231° Southwest 396 456 36,000 80 Climbing FlightAware ADS-B
Wed 07:35:46 AM -20.5120 -45.3230 232° Southwest 402 463 36,000  Level FlightAware ADS-B
Wed 07:36:22 AM -20.5530 -45.3790 232° Southwest 405 466 36,000  Level FlightAware ADS-B
Wed 07:36:57 AM -20.5940 -45.4340 231° Southwest 404 465 36,000  Level FlightAware ADS-B
Wed 07:37:32 AM -20.6340 -45.4870 231° Southwest 403 464 36,000  Level FlightAware ADS-B
Wed 07:38:10 AM -20.6790 -45.5490 232° Southwest 402 463 36,000  Level FlightAware ADS-B
Wed 07:38:45 AM -20.7190 -45.6030 232° Southwest 403 464 36,000  Level FlightAware ADS-B
Wed 07:39:18 AM -20.7560 -45.6540 232° Southwest 403 464 36,000  Level FlightAware ADS-B
Wed 07:39:53 AM -20.7960 -45.7070 231° Southwest 404 465 36,000  Level FlightAware ADS-B
Wed 07:40:29 AM -20.8390 -45.7660 232° Southwest 404 465 36,000  Level FlightAware ADS-B
Wed 07:41:03 AM -20.8790 -45.8200 232° Southwest 404 465 36,000  Level FlightAware ADS-B
Wed 07:41:39 AM -20.9200 -45.8760 232° Southwest 402 463 36,000  Level FlightAware ADS-B
Wed 07:42:16 AM -20.9610 -45.9320 232° Southwest 401 461 36,000  Level FlightAware ADS-B
Wed 07:42:51 AM -21.0020 -45.9880 232° Southwest 399 459 36,000  Level FlightAware ADS-B
Wed 07:43:23 AM -21.0390 -46.0380 232° Southwest 399 459 36,000  Level FlightAware ADS-B
Wed 07:43:56 AM -21.0770 -46.0890 231° Southwest 399 459 36,000  Level FlightAware ADS-B
Wed 07:44:36 AM -21.1210 -46.1510 233° Southwest 399 459 36,000  Level FlightAware ADS-B
Wed 07:45:11 AM -21.1620 -46.2070 232° Southwest 398 458 36,000  Level FlightAware ADS-B
Wed 07:45:43 AM -21.1990 -46.2570 232° Southwest 397 457 36,000  Level FlightAware ADS-B
Wed 07:46:19 AM -21.2390 -46.3120 232° Southwest 396 456 36,000  Level FlightAware ADS-B
Wed 07:46:57 AM -21.2830 -46.3720 232° Southwest 396 456 36,000  Level FlightAware ADS-B
Wed 07:47:29 AM -21.3180 -46.4200 232° Southwest 394 453 36,000  Level FlightAware ADS-B
Wed 07:48:08 AM -21.3610 -46.4790 232° Southwest 393 452 36,000  Level FlightAware ADS-B
Wed 07:48:49 AM -21.4060 -46.5410 232° Southwest 391 450 36,000  Level FlightAware ADS-B
Wed 07:49:21 AM -21.4410 -46.5880 231° Southwest 394 453 36,000  Level FlightAware ADS-B
Wed 07:49:57 AM -21.5000 -46.6320 215° Southwest 406 467 36,000  Level FlightAware ADS-B
Wed 07:50:33 AM -21.5560 -46.6720 214° Southwest 401 461 36,000  Level FlightAware ADS-B
Wed 07:51:05 AM -21.6060 -46.7070 213° Southwest 400 460 36,000  Level FlightAware ADS-B
Wed 07:51:41 AM -21.6610 -46.7460 213° Southwest 399 459 36,000  Level FlightAware ADS-B
Wed 07:52:18 AM -21.7170 -46.7860 214° Southwest 398 458 36,000  Level FlightAware ADS-B
Wed 07:52:53 AM -21.7730 -46.8260 214° Southwest 398 458 36,000  Level FlightAware ADS-B
Wed 07:53:25 AM -21.8220 -46.8600 213° Southwest 398 458 36,000  Level FlightAware ADS-B
Wed 07:54:01 AM -21.8770 -46.9000 214° Southwest 398 458 36,000  Level FlightAware ADS-B
Wed 07:54:37 AM -21.9320 -46.9390 213° Southwest 399 459 36,000  Level FlightAware ADS-B
Wed 07:55:12 AM -21.9860 -46.9770 213° Southwest 401 461 36,000  Level FlightAware ADS-B
Wed 07:55:43 AM -22.0350 -47.0120 214° Southwest 401 461 36,000  Level FlightAware ADS-B
Wed 07:56:21 AM -22.0900 -47.0520 214° Southwest 401 461 36,000 -83 Level FlightAware ADS-B
Wed 07:56:55 AM -22.1470 -47.0920 213° Southwest 401 461 35,900 -1,235 Descending FlightAware ADS-B
Wed 07:57:29 AM -22.1980 -47.1290 214° Southwest 399 459 34,600 -2,273 Descending FlightAware ADS-B
Wed 07:58:01 AM -22.2460 -47.1630 213° Southwest 397 457 33,400 -2,250 Descending FlightAware ADS-B
Wed 07:58:41 AM -22.3060 -47.2060 214° Southwest 392 451 31,900 -2,260 Descending FlightAware ADS-B
Wed 07:59:18 AM -22.3610 -47.2460 214° Southwest 385 443 30,500 -2,229 Descending FlightAware ADS-B
Wed 07:59:51 AM -22.4120 -47.2820 213° Southwest 379 436 29,300 -2,206 Descending FlightAware ADS-B
Wed 08:00:26 AM -22.4640 -47.3200 214° Southwest 370 426 28,000 -2,083 Descending FlightAware ADS-B
Wed 08:01:03 AM -22.5130 -47.3550 213° Southwest 364 419 26,800 -2,087 Descending FlightAware ADS-B
Wed 08:01:35 AM -22.5590 -47.3890 214° Southwest 362 417 25,600 -2,087 Descending FlightAware ADS-B
Wed 08:02:12 AM -22.6110 -47.4260 213° Southwest 360 414 24,400 -2,028 Descending FlightAware ADS-B
Wed 08:02:46 AM -22.6590 -47.4610 214° Southwest 358 412 23,200 -2,000 Descending FlightAware ADS-B
Wed 08:03:24 AM -22.7110 -47.4980 213° Southwest 355 409 22,000 -1,895 Descending FlightAware ADS-B
Wed 08:04:02 AM -22.7600 -47.5340 214° Southwest 349 402 20,800 -1,875 Descending FlightAware ADS-B
Wed 08:04:28 AM -22.8000 -47.5500 200° South 352 405 20,000 -1,811 Descending FlightAware ADS-B
Wed 08:04:55 AM -22.8400 -47.5390 166° South 353 406 19,200 -1,846 Descending FlightAware ADS-B
Wed 08:05:33 AM -22.8880 -47.4900 137° Southeast 361 415 18,000 -1,808 Descending FlightAware ADS-B
Wed 08:06:08 AM -22.9290 -47.4450 135° Southeast 354 407 17,000 -1,714 Descending FlightAware ADS-B
Wed 08:06:43 AM -22.9720 -47.4050 139° Southeast 344 396 16,000 -1,644 Descending FlightAware ADS-B
Wed 08:07:21 AM -23.0140 -47.3650 139° Southeast 336 387 15,000 -1,629 Descending FlightAware ADS-B
Wed 08:07:53 AM -23.0540 -47.3290 140° Southeast 321 369 14,100 -1,254 Descending FlightAware ADS-B
Wed 08:08:28 AM -23.0940 -47.2920 140° Southeast 304 350 13,600 -701 Descending FlightAware ADS-B
Wed 08:09:10 AM -23.1360 -47.2520 139° Southeast 276 318 13,200 -553 Descending FlightAware ADS-B
Wed 08:09:44 AM -23.1680 -47.2220 139° Southeast 256 295 12,900 -592 Descending FlightAware ADS-B
Wed 08:10:21 AM -23.1990 -47.1930 139° Southeast 241 277 12,500 -822 Descending FlightAware ADS-B
Wed 08:10:57 AM -23.2290 -47.1650 139° Southeast 231 266 11,900 -1,000 Descending FlightAware ADS-B
Wed 08:11:33 AM -23.2580 -47.1390 141° Southeast 217 250 11,300 -1,182 Descending FlightAware ADS-B
Wed 08:12:03 AM -23.2820 -47.1160 139° Southeast 219 252 10,600 -1,322 Descending FlightAware ADS-B
Wed 08:12:32 AM -23.3050 -47.0940 139° Southeast 223 257 10,000 -1,176 Descending FlightAware ADS-B
Wed 08:12:54 AM -23.3220 -47.0790 141° Southeast 229 264 9,600 -1,000 Descending FlightAware ADS-B
Wed 08:13:08 AM -23.3330 -47.0690 140° Southeast 217 250 9,400 -1,091 Descending FlightAware ADS-B
Wed 08:13:27 AM -23.3510 -47.0540 143° Southeast 221 254 9,000 -1,000 Descending FlightAware ADS-B
Wed 08:13:38 AM -23.3590 -47.0500 155° Southeast 211 243 8,900 -581 Descending FlightAware ADS-B
Wed 08:13:58 AM -23.3790 -47.0410 158° South 221 254 8,700 -450 Descending FlightAware ADS-B
Wed 08:14:18 AM -23.3960 -47.0340 159° South 212 244 8,600 -439 Descending FlightAware ADS-B
Wed 08:14:39 AM -23.4130 -47.0280 162° South 210 242 8,400 -600 Descending FlightAware ADS-B
Wed 08:15:08 AM -23.4450 -47.0150 160° South 205 236 8,100 -615 Descending FlightAware ADS-B
Wed 08:15:18 AM -23.4540 -47.0100 153° Southeast 205 236 8,000 -571 Descending FlightAware ADS-B
Wed 08:15:29 AM -23.4610 -47.0030 137° Southeast 215 247 7,900 -300 Descending FlightAware ADS-B
Wed 08:15:38 AM -23.4650 -46.9920 112° Southeast 221 254 7,900  Level FlightAware ADS-B
Wed 08:15:43 AM -23.4650 -46.9860 90° East 227 261 7,900 -462 Level FlightAware ADS-B
Wed 08:16:04 AM -23.4580 -46.9630 72° East 238 274 7,700 -585 Descending FlightAware ADS-B
Wed 08:16:24 AM -23.4510 -46.9450 67° East 237 273 7,500 -857 Descending FlightAware ADS-B
Wed 08:16:39 AM -23.4420 -46.9250 64° Northeast 233 268 7,200 -1,161 Descending FlightAware ADS-B
Wed 08:16:55 AM -23.4360 -46.9090 68° East 233 268 6,900 -840 Descending FlightAware ADS-B
Wed 08:17:29 AM -23.4210 -46.8740 65° Northeast 216 249 6,500 -545 Descending FlightAware ADS-B
Wed 08:17:39 AM -23.4190 -46.8630 79° East 208 239 6,500 -162 Level FlightAware ADS-B
Wed 08:18:06 AM -23.4280 -46.8400 113° Southeast 181 208 6,400 -255 Descending FlightAware ADS-B
Wed 08:18:26 AM -23.4390 -46.8260 131° Southeast 180 207 6,300 -600 Descending FlightAware ADS-B
Wed 08:18:46 AM -23.4500 -46.8120 131° Southeast 180 207 6,000 -833 Descending FlightAware ADS-B
Wed 08:19:02 AM -23.4580 -46.8000 126° Southeast 178 205 5,800 -563 Descending FlightAware ADS-B
Wed 08:19:18 AM -23.4660 -46.7890 128° Southeast 175 201 5,700 -563 Descending FlightAware ADS-B
Wed 08:19:34 AM -23.4730 -46.7770 122° Southeast 174 200 5,500 -632 Descending FlightAware ADS-B
Wed 08:19:56 AM -23.4810 -46.7600 117° Southeast 172 198 5,300 -600 Descending FlightAware ADS-B
Wed 08:20:04 AM -23.4850 -46.7560 137° Southeast 173 199 5,200 -750 Descending FlightAware ADS-B
Wed 08:20:12 AM -23.4910 -46.7510 143° Southeast 175 201 5,100 -643 Descending FlightAware ADS-B
Wed 08:20:32 AM -23.5040 -46.7410 145° Southeast 173 199 4,900 -750 Descending FlightAware ADS-B
Wed 08:20:44 AM -23.5120 -46.7360 150° Southeast 174 200 4,700 -909 Descending FlightAware ADS-B
Wed 08:21:05 AM -23.5260 -46.7260 147° Southeast 158 182 4,400 -857 Descending FlightAware ADS-B
Wed 08:21:26 AM -23.5380 -46.7180 149° Southeast 137 158 4,100 -732 Descending FlightAware ADS-B
Wed 08:21:46 AM -23.5480 -46.7110 147° Southeast 129 148 3,900 -698 Descending FlightAware ADS-B
Wed 08:22:09 AM -23.5600 -46.7030 149° Southeast 126 145 3,600 -682 Descending FlightAware ADS-B
Wed 08:22:30 AM -23.5700 -46.6960 147° Southeast 126 145 3,400 -615 Descending FlightAware ADS-B
Wed 08:22:48 AM -23.5790 -46.6890 145° Southeast 129 148 3,200 -750 Descending FlightAware ADS-B
Wed 08:23:10 AM -23.5900 -46.6820 150° Southeast 126 145 2,900 -682 Descending FlightAware ADS-B
Wed 08:23:32 AM -23.6010 -46.6740 146° Southeast 126 145 2,700 -632 Descending FlightAware ADS-B
Wed 08:23:48 AM -23.6090 -46.6690 150° Southeast 125 144 2,500 -514 Descending FlightAware ADS-B
Wed 08:24:07 AM -23.6140 -46.6650 144° Southeast 125 144 2,400 -409 Descending FlightAware ADS-B
Wed 08:24:32 AM -23.6260 -46.6570 149° Southeast 123 142 2,200 -480 Descending FlightAware ADS-B
Wed 08:24:57 AM -23.6310 -46.6540 151° Southeast 117 135 -5,280 Descending FlightAware ADS-B
Wed 08:25:21 AM -23.6320 -46.6550 222° Southwest 117 135  Level FlightAware ADS-B
Wed 08:25:45 AM -23.6300 -46.6550 360° North 117 135  Level FlightAware ADS-B
Wed 08:26:12 AM -23.6380 -46.6440 128° Southeast 117 135  Level FlightAware ADS-B
Wed 08:28:00 AM -23.6267 -46.6554 317° Northwest  Level Estimated
Wed 08:29:00 AM -23.6267 -46.6554 114° Southeast  Level Estimated
Wed 08:30:00 AM -23.6290 -46.6560 114° Southeast  Level FlightAware ADS-B

Login

Don't have an account? Register now (free) for customized features, flight alerts, and more!